KLSE/LSE METAR and TAF weather

Enter ICAO airport designator
Station Type Date Time Source
KLSE METAR 2020/10/20 16:53 UTC NOAA

KLSE 201653Z 13008KT 10SM BKN055 OVC070 03/M04 A3023 RMK AO2 SLP247 T00331039


Station Type Date Time Source
KLSE Decoded METAR 2020/10/20 16:53 UTC NOAA

LA CROSSE MUNICIPAL AIRPORT , WI, United States (KLSE) 43-53N 091-15W 200M
Oct 20, 2020 - 12:53 PM EDT / 2020.10.20 1653 UTC
Wind: from the SE (130 degrees) at 9 MPH (8 KT):0
Visibility: 10 mile(s):0
Sky conditions: overcast
Temperature: 37.9 F (3.3 C)
Dew Point: 25.0 F (-3.9 C)
Relative Humidity: 59%
Pressure (altimeter): 30.23 in. Hg (1023 hPa)
ob: KLSE 201653Z 13008KT 10SM BKN055 OVC070 03/M04 A3023 RMK AO2 SLP247 T00331039
cycle: 17

Station Type Date Time Source
KLSE TAF 2020/10/20 18:30 UTC NOAA

TAF KLSE 201728Z 2018/2118 13008KT P6SM VCSH OVC035
FM202100 11007KT 4SM -RA OVC015
FM210400 18005KT P6SM OVC010
FM210900 28008KT P6SM OVC012
FM211500 27007KT P6SM BKN050

Example: see airport list